Latest Coastal Weather Observations for Alva Beach

IDQ60701

Issued at 1:25 am EST Friday 31 October 2014 (issued every 10 minutes, with the page automatically refreshed every 10 minutes)

About coastal observations | Map of coastal stations | Coastal observations for QLD | Marine services | Other Formats
Station Details ID: 033295 Name: ALVA BEACH Lat: -19.46 Lon: 147.48 Height: 7.5 m
Data from the previous 72 hours. | See also: Recent months at Alva Beach
Date/Time
EST
Temp

°C
Wind Pressure Rain
since 9am
mm
Weather Cloud Vis
km
Sea
Height
m
Swell
Dir
 
Speed
knots
Gust
knots
hPa Trend Height
m
Period
s
Dir
31/01:00am 23.4 ENE 14 16 1013.3 - 0.0 - - - - - - -
31/12:30am 23.3 NE 13 16 1013.5 - 0.0 - - - - - - -
31/12:00am 23.7 NE 12 15 1013.9 - 0.0 - - - - - - -
 
Date/Time
EST
Temp

°C
Wind Pressure Rain
since 9am
mm
Weather Cloud Vis
km
Sea
Height
m
Swell
Dir
 
Speed
knots
Gust
knots
hPa Trend Height
m
Period
s
Dir
30/11:30pm 23.7 NE 11 13 1014.1 - 0.0 - - - - - - -
30/11:00pm 23.7 ENE 13 15 1014.1 - 0.0 - - - - - - -
30/10:30pm 23.8 ENE 12 14 1014.2 - 0.0 - - - - - - -
30/10:00pm 23.9 NE 11 13 1014.4 - 0.0 - - - - - - -
30/09:30pm 23.8 ENE 11 13 1014.1 - 0.0 - - - - - - -
30/09:00pm 23.9 NE 13 15 1013.6 - 0.0 - - - - - - -
30/08:30pm 23.9 ENE 10 12 1013.8 - 0.0 - - - - - - -
30/08:00pm 23.8 NE 10 13 1013.4 - 0.0 - - - - - - -
30/07:30pm 24.0 NE 10 12 1013.3 - 0.0 - - - - - - -
30/07:00pm 24.0 NE 10 12 1013.2 - 0.0 - - - - - - -
30/06:30pm 24.2 NE 11 13 1012.7 - 0.0 - - - - - - -
30/06:00pm 24.4 NE 11 12 1012.4 - 0.0 - - - - - - -
30/05:30pm 24.6 NE 10 12 1012.2 - 0.0 - - - - - - -
30/05:00pm 24.9 NE 9 12 1012.2 - 0.0 - - - - - - -
30/04:30pm 25.1 NNE 10 11 1012.1 - 0.0 - - - - - - -
30/04:00pm 25.3 NE 10 12 1012.0 - 0.0 - - - - - - -
30/03:30pm 25.6 NNE 9 11 1012.0 - 0.0 - - - - - - -
30/03:00pm 26.1 NNE 8 11 1012.2 - 0.0 - - - - - - -
30/02:30pm 26.1 NNE 9 11 1012.4 - 0.0 - - - - - - -
30/02:00pm 26.3 NNE 10 12 1012.5 - 0.0 - - - - - - -
30/01:30pm 25.9 NNE 10 12 1012.6 - 0.0 - - - - - - -
30/01:00pm 26.3 NNE 10 13 1013.0 - 0.0 - - - - - - -
30/12:30pm 26.7 NNE 12 15 1013.4 - 0.0 - - - - - - -
30/12:00pm 26.2 NNE 13 16 1013.7 - 0.0 - - - - - - -
30/11:30am 26.3 NE 12 18 1014.0 - 0.0 - - - - - - -
30/11:00am 26.1 NE 14 17 1014.0 - 0.0 - - - - - - -
30/10:30am 26.6 NE 13 16 1014.1 - 0.0 - - - - - - -
30/10:00am 27.0 NE 15 17 1014.3 - 0.0 - - - - - - -
30/09:30am 26.1 ENE 16 18 1014.4 - 0.0 - - - - - - -
30/09:00am 25.9 ENE 16 18 1014.8 - 0.0 - - - - - - -
30/08:30am 25.7 E 10 13 1015.4 - 0.0 - - - - - - -
30/08:00am 25.7 ESE 5 9 1015.7 - 0.0 - - - - - - -
30/07:30am 24.2 S 5 8 1015.8 - 0.0 - - - - - - -
30/07:00am 22.9 S 4 7 1015.7 - 0.0 - - - - - - -
30/06:30am 21.6 S 5 7 1015.4 - 0.0 - - - - - - -
30/06:00am 20.7 S 5 8 1015.2 - 0.0 - - - - - - -
30/05:30am 20.6 SSW 4 6 1014.7 - 0.0 - - - - - - -
30/05:00am 21.3 S 4 5 1014.5 - 0.0 - - - - - - -
30/04:30am 21.9 SW 3 5 1014.2 - 0.0 - - - - - - -
30/04:00am 22.8 N 6 8 1013.0 - 0.0 - - - - - - -
30/03:30am 23.0 N 7 10 1012.7 - 0.0 - - - - - - -
30/03:00am 23.1 N 10 13 1012.3 - 0.0 - - - - - - -
30/02:30am 23.0 N 10 12 1012.3 - 0.0 - - - - - - -
30/02:00am 23.1 N 8 11 1012.5 - 0.0 - - - - - - -
30/01:30am 23.2 N 9 10 1012.5 - 0.0 - - - - - - -
30/01:00am 23.1 N 8 10 1012.7 - 0.0 - - - - - - -
30/12:30am 23.2 N 8 11 1013.0 - 0.0 - - - - - - -
30/12:00am 23.4 N 7 9 1013.4 - 0.0 - - - - - - -
 
Date/Time
EST
Temp

°C
Wind Pressure Rain
since 9am
mm
Weather Cloud Vis
km
Sea
Height
m
Swell
Dir
 
Speed
knots
Gust
knots
hPa Trend Height
m
Period
s
Dir
29/11:30pm 23.2 N 6 9 1013.6 - 0.0 - - - - - - -
29/11:00pm 23.2 NNE 10 12 1013.5 - 0.0 - - - - - - -
29/10:30pm 23.3 N 10 12 1013.7 - 0.0 - - - - - - -
29/10:00pm 23.5 N 10 13 1013.8 - 0.0 - - - - - - -
29/09:30pm 23.5 N 12 15 1013.4 - 0.0 - - - - - - -
29/09:00pm 23.4 N 10 12 1013.4 - 0.0 - - - - - - -
29/08:30pm 23.6 N 11 13 1013.2 - 0.0 - - - - - - -
29/08:00pm 23.6 N 11 13 1013.3 - 0.0 - - - - - - -
29/07:30pm 23.7 N 10 12 1013.1 - 0.0 - - - - - - -
29/07:00pm 23.9 N 11 13 1012.9 - 0.0 - - - - - - -
29/06:30pm 24.0 N 10 12 1012.8 - 0.0 - - - - - - -
29/06:00pm 24.2 N 10 12 1012.6 - 0.0 - - - - - - -
29/05:30pm 24.5 N 9 13 1012.3 - 0.0 - - - - - - -
29/05:00pm 24.9 N 10 14 1012.2 - 0.0 - - - - - - -
29/04:30pm 25.5 N 10 13 1012.1 - 0.0 - - - - - - -
29/04:00pm 25.9 N 9 12 1012.2 - 0.0 - - - - - - -
29/03:30pm 25.7 N 10 13 1012.1 - 0.0 - - - - - - -
29/03:00pm 26.3 N 11 15 1012.1 - 0.0 - - - - - - -
29/02:30pm 26.3 N 11 14 1012.5 - 0.0 - - - - - - -
29/02:00pm 26.9 N 11 13 1012.9 - 0.0 - - - - - - -
29/01:30pm 26.2 NNE 13 15 1013.0 - 0.0 - - - - - - -
29/01:00pm 26.4 N 11 14 1013.3 - 0.0 - - - - - - -
29/12:30pm 26.8 N 12 14 1013.4 - 0.0 - - - - - - -
29/12:00pm 26.9 N 11 14 1013.8 - 0.0 - - - - - - -
29/11:30am 26.5 N 11 13 1014.1 - 0.0 - - - - - - -
29/11:00am 26.8 NNE 10 13 1014.4 - 0.0 - - - - - - -
29/10:30am 26.4 NNE 9 12 1014.6 - 0.0 - - - - - - -
29/10:00am 25.9 NNE 8 11 1014.8 - 0.0 - - - - - - -
29/09:30am 26.4 NNE 7 9 1014.8 - 0.0 - - - - - - -
29/09:00am 26.1 NNE 8 10 1014.7 - 0.0 - - - - - - -
29/08:30am 25.3 NE 6 8 1014.8 - 0.0 - - - - - - -
29/08:00am 25.2 NNE 4 6 1014.8 - 0.0 - - - - - - -
29/07:30am 24.8 NNE 4 6 1014.5 - 0.0 - - - - - - -
29/07:00am 23.8 NE 3 5 1014.4 - 0.0 - - - - - - -
29/06:30am 23.3 NE 4 6 1014.2 - 0.0 - - - - - - -
29/06:00am 21.9 NNE 6 7 1013.5 - 0.0 - - - - - - -
29/05:30am 21.3 CALM 0 0 1013.3 - 0.0 - - - - - - -
29/05:00am 21.8 CALM 0 0 1013.2 - 0.0 - - - - - - -
29/04:30am 22.2 NNW 4 7 1012.5 - 0.0 - - - - - - -
29/04:00am 22.0 NNW 5 7 1012.2 - 0.0 - - - - - - -
29/03:30am 22.1 NNW 5 7 1012.0 - 0.0 - - - - - - -
29/03:00am 22.6 N 7 10 1011.8 - 0.0 - - - - - - -
29/02:30am 22.6 N 9 11 1012.0 - 0.0 - - - - - - -
29/02:00am 22.7 N 9 11 1012.1 - 0.0 - - - - - - -
29/01:30am 22.8 N 9 13 1012.1 - 0.0 - - - - - - -
29/01:00am 22.8 N 9 12 1012.5 - 0.0 - - - - - - -
29/12:30am 22.9 N 10 13 1012.8 - 0.0 - - - - - - -
29/12:00am 23.0 N 9 12 1013.2 - 0.0 - - - - - - -
 
Date/Time
EST
Temp

°C
Wind Pressure Rain
since 9am
mm
Weather Cloud Vis
km
Sea
Height
m
Swell
Dir
 
Speed
knots
Gust
knots
hPa Trend Height
m
Period
s
Dir
28/11:30pm 22.8 N 9 13 1013.4 - 0.0 - - - - - - -
28/11:00pm 22.9 N 8 11 1013.6 - 0.0 - - - - - - -
28/10:30pm 23.0 N 9 11 1013.7 - 0.0 - - - - - - -
28/10:00pm 23.0 N 10 13 1013.7 - 0.0 - - - - - - -
28/09:30pm 23.0 N 7 11 1013.8 - 0.0 - - - - - - -
28/09:00pm 23.0 N 5 8 1013.8 - 0.0 - - - - - - -
28/08:30pm 23.1 N 5 8 1013.8 - 0.0 - - - - - - -
28/08:00pm 23.2 N 6 10 1013.6 - 0.0 - - - - - - -
28/07:30pm 23.2 N 7 10 1013.3 - 0.0 - - - - - - -
28/07:00pm 23.5 N 9 13 1013.2 - 0.0 - - - - - - -
28/06:30pm 23.7 N 8 11 1013.0 - 0.0 - - - - - - -
28/06:00pm 23.9 N 8 11 1012.9 - 0.0 - - - - - - -
28/05:30pm 24.3 N 10 13 1012.6 - 0.0 - - - - - - -
28/05:00pm 24.6 N 11 13 1012.3 - 0.0 - - - - - - -
28/04:30pm 24.9 N 11 14 1012.4 - 0.0 - - - - - - -
28/04:00pm 25.6 N 11 13 1012.3 - 0.0 - - - - - - -
28/03:30pm 25.5 NNE 11 13 1012.3 - 0.0 - - - - - - -
28/03:00pm 25.8 NNE 10 13 1012.3 - 0.0 - - - - - - -
28/02:30pm 25.7 N 9 12 1012.7 - 0.0 - - - - - - -
28/02:00pm 25.5 NNE 9 11 1013.0 - 0.0 - - - - - - -
28/01:30pm 25.3 NNE 11 13 1013.1 - 0.0 - - - - - - -
28/01:00pm 25.5 NNE 9 12 1013.5 - 0.0 - - - - - - -
28/12:30pm 25.6 NNE 11 13 1013.8 - 0.0 - - - - - - -
28/12:00pm 26.0 NNE 9 11 1014.0 - 0.0 - - - - - - -
28/11:30am 26.3 N 9 11 1014.4 - 0.0 - - - - - - -
28/11:00am 26.1 N 9 12 1014.7 - 0.0 - - - - - - -
28/10:30am 25.5 N 9 12 1014.9 - 0.0 - - - - - - -
28/10:00am 26.1 N 9 11 1015.2 - 0.0 - - - - - - -
28/09:30am 25.3 N 9 11 1015.3 - 0.0 - - - - - - -
28/09:00am 24.5 N 6 10 1015.5 - 0.0 - - - - - - -
28/08:30am 25.3 NNE 9 11 1015.4 - 0.0 - - - - - - -
28/08:00am 24.8 N 9 12 1015.0 - 0.0 - - - - - - -
28/07:30am 23.8 N 6 9 1014.9 - 0.0 - - - - - - -
28/07:00am 24.0 N 7 10 1014.5 - 0.0 - - - - - - -
28/06:30am 23.1 N 5 7 1014.2 - 0.0 - - - - - - -
28/06:00am 22.6 N 6 8 1014.0 - 0.0 - - - - - - -
28/05:30am 22.3 N 7 10 1013.7 - 0.0 - - - - - - -
28/05:00am 22.4 N 8 11 1013.3 - 0.0 - - - - - - -
28/04:30am 22.4 N 7 10 1013.3 - 0.0 - - - - - - -
28/04:00am 22.2 N 7 11 1013.0 - 0.0 - - - - - - -
28/03:30am 22.5 N 7 10 1013.1 - 0.0 - - - - - - -
28/03:00am 22.4 N 8 11 1013.1 - 0.0 - - - - - - -
28/02:30am 22.3 N 9 11 1013.1 - 0.0 - - - - - - -
28/02:00am 22.4 N 10 11 1013.1 - 0.0 - - - - - - -
28/01:30am 22.4 NNE 11 13 1013.3 - 0.0 - - - - - - -

Other Formats:

Comma delimited format used in spreadsheet applications
http://www.bom.gov.au/fwo/IDQ60701/IDQ60701.95296.axf

JavaScript Object Notation format (JSON) in row-major order
http://www.bom.gov.au/fwo/IDQ60701/IDQ60701.95296.json